createdAt,value
2019-03-08T00:02:13.933Z,1.10
2019-03-08T00:04:45.217Z,1.23
2019-03-08T00:07:16.519Z,1.10
2019-03-08T00:09:47.817Z,1.20
2019-03-08T00:12:19.078Z,1.10
2019-03-08T00:14:50.364Z,1.23
2019-03-08T00:17:21.598Z,1.50
2019-03-08T00:19:52.832Z,1.40
2019-03-08T00:22:24.123Z,1.43
2019-03-08T00:24:55.390Z,1.30
2019-03-08T00:27:26.673Z,1.37
2019-03-08T00:29:58.034Z,1.30
2019-03-08T00:32:29.332Z,1.53
2019-03-08T00:35:00.635Z,1.20
2019-03-08T00:37:31.909Z,1.70
2019-03-08T00:40:03.185Z,1.10
2019-03-08T00:42:34.492Z,1.20
2019-03-08T00:45:06.207Z,1.30
2019-03-08T00:47:37.646Z,1.50
2019-03-08T00:50:09.252Z,1.40
2019-03-08T00:52:40.574Z,1.40
2019-03-08T00:55:11.958Z,1.80
2019-03-08T00:57:43.258Z,1.27
2019-03-08T01:00:16.819Z,1.67
2019-03-08T01:02:48.206Z,1.67
2019-03-08T01:05:20.036Z,1.40
2019-03-08T01:07:51.340Z,1.50
2019-03-08T01:10:23.261Z,1.33
2019-03-08T01:12:54.862Z,1.60
2019-03-08T01:15:26.197Z,1.37
2019-03-08T01:17:57.541Z,1.60
2019-03-08T01:20:28.849Z,1.50
2019-03-08T01:23:00.114Z,1.80
2019-03-08T01:25:31.409Z,1.70
2019-03-08T01:28:09.270Z,1.60
2019-03-08T01:30:41.245Z,1.50
2019-03-08T01:33:12.830Z,2.00
2019-03-08T01:35:44.475Z,1.77
2019-03-08T01:38:15.758Z,1.70
2019-03-08T01:40:47.100Z,2.10
2019-03-08T01:43:18.443Z,1.73
2019-03-08T01:45:49.760Z,1.90
2019-03-08T01:48:21.139Z,1.90
2019-03-08T01:50:52.452Z,1.73
2019-03-08T01:53:23.740Z,1.80
2019-03-08T01:55:55.061Z,2.00
2019-03-08T01:58:26.611Z,1.47
2019-03-08T02:00:57.972Z,1.63
2019-03-08T02:03:29.282Z,1.70
2019-03-08T02:06:00.524Z,1.83
2019-03-08T02:08:31.790Z,1.70
2019-03-08T02:11:03.278Z,1.80
2019-03-08T02:13:34.569Z,1.80
2019-03-08T02:16:05.915Z,2.07
2019-03-08T02:18:37.195Z,1.60
2019-03-08T02:21:08.521Z,1.63
2019-03-08T02:23:39.925Z,2.00
2019-03-08T02:26:11.213Z,1.93
2019-03-08T02:28:42.477Z,1.77
2019-03-08T02:31:13.733Z,1.90
2019-03-08T02:33:45.205Z,2.30
2019-03-08T02:36:16.506Z,2.17
2019-03-08T02:38:47.795Z,2.00
2019-03-08T02:41:19.051Z,2.03
2019-03-08T02:43:50.270Z,2.10
2019-03-08T02:46:24.846Z,2.20
2019-03-08T02:48:56.084Z,1.90
2019-03-08T02:51:27.455Z,2.10
2019-03-08T02:53:58.744Z,2.20
2019-03-08T02:56:30.060Z,2.47
2019-03-08T02:59:01.758Z,2.70
2019-03-08T03:01:33.049Z,2.47
2019-03-08T03:04:04.594Z,2.63
2019-03-08T03:06:35.858Z,2.60
2019-03-08T03:09:08.070Z,1.50
2019-03-08T03:11:39.334Z,1.30
2019-03-08T03:14:10.576Z,1.10
2019-03-08T03:16:41.855Z,1.40
2019-03-08T03:19:13.121Z,1.30
2019-03-08T03:21:44.351Z,1.37
2019-03-08T03:24:15.753Z,1.20
2019-03-08T03:26:47.002Z,1.60
2019-03-08T03:29:18.252Z,1.20
2019-03-08T03:31:49.516Z,1.20
2019-03-08T03:34:20.775Z,1.07
2019-03-08T03:36:52.218Z,1.23
2019-03-08T03:39:23.564Z,1.40
2019-03-08T03:41:54.827Z,1.70
2019-03-08T03:44:26.107Z,2.10
2019-03-08T03:46:57.572Z,1.33
2019-03-08T03:49:28.792Z,1.30
2019-03-08T03:52:00.063Z,1.60
2019-03-08T03:54:31.327Z,1.43
2019-03-08T03:57:02.587Z,1.60
2019-03-08T03:59:34.005Z,2.10
2019-03-08T04:02:05.382Z,2.20
2019-03-08T04:04:36.624Z,2.30
2019-03-08T04:07:07.855Z,2.40
2019-03-08T04:09:39.102Z,2.83
2019-03-08T04:12:10.455Z,3.20
2019-03-08T04:14:41.740Z,3.33
2019-03-08T04:17:13.011Z,3.73
2019-03-08T04:19:44.269Z,3.60
2019-03-08T04:22:15.559Z,3.23
2019-03-08T04:24:46.854Z,3.70
2019-03-08T04:27:18.124Z,4.07
2019-03-08T04:29:49.370Z,4.30
2019-03-08T04:32:20.659Z,3.90
2019-03-08T04:34:51.939Z,3.73
2019-03-08T04:37:23.228Z,3.93
2019-03-08T04:39:54.487Z,4.30
2019-03-08T04:42:25.794Z,4.07
2019-03-08T04:44:57.197Z,3.70
2019-03-08T04:47:28.513Z,4.13
2019-03-08T04:49:59.895Z,3.73
2019-03-08T04:52:31.395Z,4.43
2019-03-08T04:55:02.694Z,3.67
2019-03-08T04:57:33.954Z,3.67
2019-03-08T05:00:06.156Z,4.57
2019-03-08T05:02:37.460Z,4.40
2019-03-08T05:05:08.887Z,4.73
2019-03-08T05:07:40.142Z,4.57
2019-03-08T05:10:13.954Z,5.10
2019-03-08T05:12:45.426Z,4.83
2019-03-08T05:15:17.191Z,5.17
2019-03-08T05:17:48.505Z,5.03
2019-03-08T05:20:19.756Z,4.13
2019-03-08T05:22:51.087Z,4.60
2019-03-08T05:25:22.361Z,4.77
2019-03-08T05:27:53.645Z,4.97
2019-03-08T05:30:24.935Z,5.00
2019-03-08T05:32:56.228Z,4.67
2019-03-08T05:35:27.558Z,4.87
2019-03-08T05:37:58.854Z,4.47
2019-03-08T05:40:30.191Z,4.97
2019-03-08T05:43:01.480Z,4.77
2019-03-08T05:45:32.815Z,5.20
2019-03-08T05:48:04.082Z,4.77
2019-03-08T05:50:35.433Z,4.50
2019-03-08T05:53:06.736Z,5.10
2019-03-08T05:55:38.042Z,4.77
2019-03-08T05:58:09.282Z,4.20
2019-03-08T06:00:40.650Z,4.30
2019-03-08T06:03:11.918Z,4.43
2019-03-08T06:05:43.222Z,4.13
2019-03-08T06:08:14.506Z,4.07
2019-03-08T06:10:45.838Z,5.27
2019-03-08T06:13:17.088Z,4.17
2019-03-08T06:15:48.393Z,4.20
2019-03-08T06:18:19.927Z,4.20
2019-03-08T06:20:51.201Z,4.30
2019-03-08T06:23:22.595Z,4.00
2019-03-08T06:25:54.152Z,4.40
2019-03-08T06:28:25.394Z,4.47
2019-03-08T06:30:56.696Z,3.83
2019-03-08T06:33:27.955Z,4.20
2019-03-08T06:35:59.178Z,4.50
2019-03-08T06:38:30.458Z,4.93
2019-03-08T06:41:01.756Z,5.37
2019-03-08T06:43:33.027Z,4.40
2019-03-08T06:46:04.334Z,5.00
2019-03-08T06:48:35.680Z,4.73
2019-03-08T06:51:06.964Z,4.10
2019-03-08T06:53:38.234Z,4.77
2019-03-08T06:56:09.560Z,4.13
2019-03-08T06:58:49.299Z,4.47
2019-03-08T07:01:24.082Z,4.30
2019-03-08T07:03:55.389Z,4.50
2019-03-08T07:06:26.686Z,4.60
2019-03-08T07:08:57.990Z,4.40
2019-03-08T07:11:29.449Z,4.57
2019-03-08T07:14:00.740Z,4.00
2019-03-08T07:16:32.067Z,4.27
2019-03-08T07:19:03.386Z,5.23
2019-03-08T07:21:42.334Z,4.63
2019-03-08T07:24:22.977Z,4.30
2019-03-08T07:27:21.977Z,4.10
2019-03-08T07:30:12.170Z,4.13
2019-03-08T07:33:01.052Z,3.73
2019-03-08T07:35:51.230Z,3.63
2019-03-08T07:38:44.197Z,4.03
2019-03-08T07:41:46.277Z,3.87
2019-03-08T07:44:48.281Z,4.60
2019-03-08T07:47:34.426Z,4.33
2019-03-08T07:50:23.908Z,3.80
2019-03-08T07:53:15.686Z,4.53
2019-03-08T07:55:59.241Z,3.97
2019-03-08T07:58:51.834Z,4.77
2019-03-08T08:01:57.219Z,4.67
2019-03-08T08:04:39.598Z,4.40
2019-03-08T08:07:17.264Z,5.17
2019-03-08T08:09:59.374Z,5.37
2019-03-08T08:12:47.943Z,5.40
2019-03-08T08:15:47.140Z,5.40
2019-03-08T08:18:28.867Z,5.37
2019-03-08T08:21:19.097Z,5.20
2019-03-08T08:24:08.306Z,5.80
2019-03-08T08:26:52.938Z,6.30
2019-03-08T08:29:48.970Z,5.03
2019-03-08T08:32:37.848Z,5.90
2019-03-08T08:35:27.089Z,6.10
2019-03-08T08:38:26.063Z,6.50
2019-03-08T08:41:05.272Z,6.20
2019-03-08T08:44:04.640Z,5.63
2019-03-08T08:46:53.787Z,5.10
2019-03-08T08:49:36.234Z,5.30
2019-03-08T08:52:35.362Z,5.27
2019-03-08T08:58:01.157Z,4.73
2019-03-08T09:00:44.703Z,4.33
2019-03-08T09:03:43.445Z,4.43
2019-03-08T09:06:28.451Z,4.93
2019-03-08T09:09:12.773Z,4.03
2019-03-08T09:11:52.815Z,5.17
2019-03-08T09:14:30.626Z,4.53
2019-03-08T09:17:20.816Z,4.40
2019-03-08T09:20:11.426Z,6.13
2019-03-08T09:22:50.316Z,5.33
2019-03-08T09:25:26.402Z,4.67
2019-03-08T09:28:14.258Z,4.50
2019-03-08T09:30:51.846Z,4.63
2019-03-08T09:33:27.281Z,5.03
2019-03-08T09:36:08.456Z,4.67
2019-03-08T09:38:56.508Z,4.73
2019-03-08T09:41:33.979Z,4.87
2019-03-08T09:44:26.996Z,4.00
2019-03-08T09:47:15.096Z,4.03
2019-03-08T09:49:58.107Z,3.63
2019-03-08T09:52:48.324Z,3.63
2019-03-08T09:55:26.611Z,3.17
2019-03-08T09:58:03.780Z,3.60
2019-03-08T10:01:03.069Z,3.47
2019-03-08T10:03:49.035Z,2.83
2019-03-08T10:06:49.923Z,3.07
2019-03-08T10:09:49.027Z,2.53
2019-03-08T10:12:36.877Z,3.30
2019-03-08T10:15:26.859Z,3.60
2019-03-08T10:18:26.153Z,3.80
2019-03-08T10:21:14.738Z,3.77
2019-03-08T10:23:58.628Z,4.00
2019-03-08T10:26:51.863Z,3.23
2019-03-08T10:29:37.439Z,3.47
2019-03-08T10:32:36.843Z,3.00
2019-03-08T10:35:23.274Z,2.73
2019-03-08T10:38:04.305Z,2.87
2019-03-08T10:40:49.051Z,2.80
2019-03-08T10:43:30.833Z,2.73
2019-03-08T10:46:19.543Z,2.53
2019-03-08T10:49:14.647Z,2.83
2019-03-08T10:52:17.617Z,2.40
2019-03-08T10:55:10.262Z,3.03
2019-03-08T10:58:18.738Z,2.67
2019-03-08T11:01:02.135Z,3.07
2019-03-08T11:04:05.936Z,3.03
2019-03-08T11:06:51.472Z,3.53
2019-03-08T11:09:44.588Z,2.80
2019-03-08T11:12:33.305Z,3.13
2019-03-08T11:15:24.722Z,2.70
2019-03-08T11:18:16.336Z,2.90
2019-03-08T11:21:11.460Z,3.43
2019-03-08T11:24:19.572Z,2.80
2019-03-08T11:27:15.612Z,2.63
2019-03-08T11:30:11.652Z,2.90
2019-03-08T11:33:00.294Z,2.50
2019-03-08T11:35:36.961Z,2.40
2019-03-08T11:38:17.620Z,2.33
2019-03-08T11:41:14.615Z,2.50
2019-03-08T11:44:10.065Z,3.57
2019-03-08T11:46:54.597Z,2.83
2019-03-08T11:49:44.070Z,2.67
2019-03-08T11:52:31.466Z,2.33
2019-03-08T11:55:20.308Z,3.53
2019-03-08T11:58:22.677Z,2.63
2019-03-08T12:01:11.592Z,2.80
2019-03-08T12:04:00.160Z,2.60
2019-03-08T12:06:48.990Z,3.10
2019-03-08T12:09:46.020Z,2.53
2019-03-08T12:12:38.915Z,2.87
2019-03-08T12:15:30.209Z,2.80
2019-03-08T12:18:09.239Z,3.20
2019-03-08T12:21:11.315Z,3.10
2019-03-08T12:23:59.939Z,3.20
2019-03-08T12:26:48.899Z,2.70
2019-03-08T12:29:37.917Z,3.20
2019-03-08T12:32:37.031Z,3.43
2019-03-08T12:35:27.680Z,3.57
2019-03-08T12:38:17.817Z,2.83
2019-03-08T12:41:00.082Z,3.30
2019-03-08T12:43:50.266Z,3.53
2019-03-08T12:46:38.339Z,3.10
2019-03-08T12:49:31.561Z,3.03
2019-03-08T12:52:16.429Z,3.27
2019-03-08T12:55:05.051Z,3.00
2019-03-08T12:57:47.315Z,3.13
2019-03-08T13:00:43.624Z,3.33
2019-03-08T13:03:24.625Z,2.77
2019-03-08T13:06:13.804Z,2.80
2019-03-08T13:09:03.752Z,2.93
2019-03-08T13:11:35.068Z,2.90
2019-03-08T13:14:06.445Z,2.67
2019-03-08T13:16:37.714Z,2.00
2019-03-08T13:19:08.961Z,2.17
2019-03-08T13:21:40.214Z,1.70
2019-03-08T13:24:11.780Z,2.00
2019-03-08T13:26:43.138Z,1.90
2019-03-08T13:29:14.405Z,1.40
2019-03-08T13:31:45.736Z,1.77
2019-03-08T13:34:17.025Z,1.27
2019-03-08T13:36:48.531Z,1.60
2019-03-08T13:39:19.846Z,1.70
2019-03-08T13:41:51.212Z,1.60
2019-03-08T13:44:22.496Z,1.67
2019-03-08T13:46:53.808Z,1.70
2019-03-08T13:49:25.305Z,1.50
2019-03-08T13:51:56.736Z,1.83
2019-03-08T13:54:28.015Z,1.80
2019-03-08T13:56:59.301Z,1.80
2019-03-08T13:59:30.733Z,1.60
2019-03-08T14:02:02.092Z,2.27
2019-03-08T14:04:33.453Z,1.80
2019-03-08T14:07:04.799Z,1.87
2019-03-08T14:09:36.101Z,2.07
2019-03-08T14:12:07.392Z,2.10
2019-03-08T14:14:38.779Z,1.93
2019-03-08T14:17:10.105Z,1.93
2019-03-08T14:19:42.826Z,2.37
2019-03-08T14:22:14.155Z,1.80
2019-03-08T14:24:45.990Z,2.27
2019-03-08T14:27:17.320Z,1.83
2019-03-08T14:29:48.677Z,1.80
2019-03-08T14:32:25.221Z,2.33
2019-03-08T14:34:55.039Z,1.83
2019-03-08T14:37:26.384Z,1.97
2019-03-08T14:39:57.703Z,1.90
2019-03-08T14:42:40.483Z,1.87
2019-03-08T14:45:35.175Z,2.40
2019-03-08T14:48:09.615Z,1.90
2019-03-08T14:50:39.558Z,1.90
2019-03-08T14:53:10.855Z,2.10
2019-03-08T14:55:42.156Z,2.30
2019-03-08T14:58:13.483Z,2.27
2019-03-08T15:00:44.777Z,2.17
2019-03-08T15:03:16.184Z,1.87
2019-03-08T15:05:51.088Z,2.20
2019-03-08T15:08:20.624Z,2.27
2019-03-08T15:10:51.933Z,2.27
2019-03-08T15:13:24.143Z,2.17
2019-03-08T15:15:58.093Z,2.23
2019-03-08T15:18:30.857Z,2.50
2019-03-08T15:21:02.208Z,2.40
2019-03-08T15:23:33.456Z,2.90
2019-03-08T15:26:04.887Z,2.47
2019-03-08T15:28:36.165Z,2.37
2019-03-08T15:31:07.446Z,2.67
2019-03-08T15:33:38.734Z,2.60
2019-03-08T15:36:10.023Z,2.43
2019-03-08T15:38:42.987Z,2.87
2019-03-08T15:41:14.242Z,2.33
2019-03-08T15:43:46.879Z,2.43
2019-03-08T15:46:22.002Z,2.60
2019-03-08T15:48:53.132Z,2.70
2019-03-08T15:51:25.321Z,2.47
2019-03-08T15:53:56.921Z,2.40
2019-03-08T15:56:28.270Z,3.00
2019-03-08T15:58:59.538Z,2.80
2019-03-08T16:01:30.855Z,2.50
2019-03-08T16:04:02.154Z,2.40
2019-03-08T16:06:33.423Z,2.63
2019-03-08T16:09:05.872Z,2.13
2019-03-08T16:11:37.276Z,2.40
2019-03-08T16:14:09.258Z,2.40
2019-03-08T16:16:40.656Z,2.07
2019-03-08T16:19:11.944Z,2.07
2019-03-08T16:21:46.918Z,2.10
2019-03-08T16:24:16.147Z,1.73
2019-03-08T16:26:47.451Z,2.20
2019-03-08T16:29:18.775Z,2.00
2019-03-08T16:32:08.674Z,2.20
2019-03-08T16:34:39.767Z,1.80
2019-03-08T16:37:19.273Z,2.00
2019-03-08T16:40:07.861Z,2.13
2019-03-08T16:43:15.856Z,1.87
2019-03-08T16:46:08.154Z,1.80
2019-03-08T16:48:59.031Z,1.83
2019-03-08T16:51:47.132Z,1.83
2019-03-08T16:54:43.483Z,1.63
2019-03-08T16:57:26.356Z,1.53
2019-03-08T17:00:10.974Z,1.87
2019-03-08T17:03:00.453Z,1.80
2019-03-08T17:05:50.604Z,1.70
2019-03-08T17:08:34.838Z,1.70
2019-03-08T17:11:32.680Z,1.57
2019-03-08T17:14:29.006Z,2.13
2019-03-08T17:17:22.013Z,1.67
2019-03-08T17:19:59.243Z,2.30
2019-03-08T17:22:58.678Z,1.77
2019-03-08T17:25:37.827Z,1.70
2019-03-08T17:28:26.835Z,2.00
2019-03-08T17:31:10.576Z,1.90
2019-03-08T17:34:00.801Z,1.40
2019-03-08T17:36:41.311Z,1.90
2019-03-08T17:39:20.406Z,1.57
2019-03-08T17:42:28.705Z,2.20
2019-03-08T17:45:33.816Z,1.70
2019-03-08T17:48:22.673Z,1.80
2019-03-08T17:51:12.938Z,1.53
2019-03-08T17:53:54.386Z,1.80
2019-03-08T17:56:50.514Z,2.00
2019-03-08T17:59:30.703Z,1.67
2019-03-08T18:02:20.928Z,1.70
2019-03-08T18:05:15.692Z,1.40
2019-03-08T18:08:06.378Z,1.70
2019-03-08T18:11:02.435Z,1.60
2019-03-08T18:13:55.436Z,1.47
2019-03-08T18:16:54.780Z,1.50
2019-03-08T18:19:44.970Z,1.90
2019-03-08T18:22:37.899Z,1.60
2019-03-08T18:25:22.611Z,1.97
2019-03-08T18:28:04.342Z,1.90
2019-03-08T18:30:46.293Z,1.93
2019-03-08T18:33:22.905Z,2.10
2019-03-08T18:36:13.102Z,2.00
2019-03-08T18:39:15.387Z,1.80
2019-03-08T18:42:04.484Z,2.13
2019-03-08T18:45:06.701Z,2.10
2019-03-08T18:47:51.409Z,1.70
2019-03-08T18:50:41.643Z,1.90
2019-03-08T18:53:26.204Z,1.80
2019-03-08T18:56:34.571Z,1.70
2019-03-08T18:59:36.982Z,1.70
2019-03-08T19:02:23.646Z,1.87
2019-03-08T19:05:02.209Z,2.03
2019-03-08T19:07:55.484Z,1.80
2019-03-08T19:10:48.446Z,1.97
2019-03-08T19:13:53.710Z,1.87
2019-03-08T19:16:40.226Z,1.80
2019-03-08T19:19:33.494Z,1.83
2019-03-08T19:22:26.434Z,1.80
2019-03-08T19:25:11.614Z,2.00
2019-03-08T19:28:10.889Z,1.90
2019-03-08T19:31:13.056Z,1.70
2019-03-08T19:34:02.187Z,1.80
2019-03-08T19:36:55.358Z,1.83
2019-03-08T19:39:37.656Z,2.13
2019-03-08T19:42:23.864Z,2.07
2019-03-08T19:45:11.468Z,2.13
2019-03-08T19:48:00.548Z,2.00
2019-03-08T19:50:49.460Z,2.07
2019-03-08T19:53:27.038Z,2.50
2019-03-08T19:56:07.580Z,2.30
2019-03-08T19:59:09.924Z,2.40
2019-03-08T20:01:58.808Z,2.57
2019-03-08T20:04:55.057Z,2.70
2019-03-08T20:07:43.714Z,2.80
2019-03-08T20:10:32.560Z,2.63
2019-03-08T20:13:22.777Z,2.60
2019-03-08T20:16:18.739Z,2.43
2019-03-08T20:18:58.690Z,2.60
2019-03-08T20:22:07.065Z,2.93
2019-03-08T20:24:53.667Z,2.43
2019-03-08T20:27:47.029Z,2.80
2019-03-08T20:30:43.451Z,2.97
2019-03-08T20:33:32.134Z,2.83
2019-03-08T20:36:21.155Z,2.80
2019-03-08T20:39:11.347Z,3.00
2019-03-08T20:41:59.818Z,3.03
2019-03-08T20:44:56.084Z,2.63
2019-03-08T20:47:29.938Z,2.93
2019-03-08T20:50:01.276Z,3.10
2019-03-08T20:52:32.586Z,2.93
2019-03-08T20:55:04.139Z,2.80
2019-03-08T20:57:35.419Z,3.20
2019-03-08T21:00:07.903Z,3.37
2019-03-08T21:02:39.170Z,2.90
2019-03-08T21:05:10.634Z,2.80
2019-03-08T21:07:41.964Z,3.13
2019-03-08T21:10:13.385Z,2.90
2019-03-08T21:12:44.681Z,3.17
2019-03-08T21:15:24.984Z,3.07
2019-03-08T21:17:49.097Z,3.23
2019-03-08T21:20:20.365Z,3.17
2019-03-08T21:22:51.659Z,2.90
2019-03-08T21:25:22.971Z,2.93
2019-03-08T21:27:54.310Z,2.80
2019-03-08T21:30:25.604Z,3.00
2019-03-08T21:32:56.994Z,2.77
2019-03-08T21:35:28.496Z,2.57
2019-03-08T21:38:00.710Z,3.00
2019-03-08T21:40:32.035Z,3.03
2019-03-08T21:43:03.323Z,2.77
2019-03-08T21:45:34.632Z,2.90
2019-03-08T21:48:05.945Z,2.80
2019-03-08T21:50:37.262Z,2.80
2019-03-08T21:53:08.541Z,2.80
2019-03-08T21:55:39.862Z,2.50
2019-03-08T21:58:11.399Z,2.30
2019-03-08T22:00:42.685Z,3.07
2019-03-08T22:03:13.971Z,3.10
2019-03-08T22:05:45.235Z,2.53
2019-03-08T22:08:17.842Z,2.77
2019-03-08T22:11:08.200Z,2.60
2019-03-08T22:13:39.459Z,3.13
2019-03-08T22:16:10.787Z,3.13
2019-03-08T22:18:42.201Z,2.63
2019-03-08T22:21:13.428Z,2.97
2019-03-08T22:23:44.715Z,2.40
2019-03-08T22:26:16.091Z,2.27
2019-03-08T22:28:47.357Z,2.60
2019-03-08T22:31:18.613Z,2.70
2019-03-08T22:33:49.920Z,2.50
2019-03-08T22:36:21.168Z,2.00
2019-03-08T22:38:52.437Z,2.90
2019-03-08T22:41:23.734Z,2.60
2019-03-08T22:43:55.012Z,2.57
2019-03-08T22:46:26.321Z,2.87
2019-03-08T22:48:57.591Z,2.60
2019-03-08T22:51:29.148Z,2.80
2019-03-08T22:54:00.429Z,2.50
2019-03-08T22:56:31.719Z,2.93
2019-03-08T22:59:03.013Z,2.63
2019-03-08T23:01:43.988Z,2.43
2019-03-08T23:04:15.286Z,2.53
2019-03-08T23:06:46.562Z,2.33
2019-03-08T23:09:19.791Z,2.73
2019-03-08T23:11:51.091Z,2.60
2019-03-08T23:14:22.386Z,2.60
2019-03-08T23:16:53.672Z,2.37
2019-03-08T23:19:24.997Z,2.10
2019-03-08T23:21:56.260Z,1.90
2019-03-08T23:24:27.535Z,1.77
2019-03-08T23:27:21.374Z,1.63
2019-03-08T23:29:55.902Z,2.10
2019-03-08T23:32:32.670Z,2.47
2019-03-08T23:35:03.917Z,2.70
2019-03-08T23:37:35.197Z,2.80
2019-03-08T23:40:07.107Z,2.17
2019-03-08T23:42:38.373Z,2.40
2019-03-08T23:45:10.183Z,2.40
2019-03-08T23:47:41.466Z,2.57
2019-03-08T23:50:12.705Z,2.33
2019-03-08T23:52:44.179Z,2.20
2019-03-08T23:55:15.471Z,2.53
2019-03-08T23:57:46.714Z,2.23
